Portada
METAR-TAF:

METAR-TAF

Aeroports :

Vitória da Conquista, Bahia, Brasil

latitud: 14-57S, longitud: 040-53W, altitud: 840 m

Observació

L'informe es va fer fa 35 minuts, a les 20:00 UTC
Vent 12 kt del Sud/Sud-Est
Temperatura 17°C
Humitat 82%
Pressió 1025 hPa
Visibilitat 10 km o més
Cel ennuvolat a una alçada de 2000 ft

METAR: SBQV 192000Z 15012KT 9999 BKN020 17/14 Q1025

Hora: 17:35 (20:35 UTC)


TAF: manca

Observacions i pronòstics meteorològics de més de 4000 aeroports (METAR i TAF).

Les estacions disponibles són els punts grocs i vermells al mapa.

Posi el ratolí al punt desitjat per veure el nom de l'estació.

Feu clic per veure les observacions i els pronòstics meteorològics.

Per canviar el mapa: feu clic els botons verds amb una creu de color negre per apropar; al botó verd amb un guió per allunyar la imatge; o en les fletxes verdes per a mapes adjacents.


METAR-TAF: